Time;durP1;ratioP1;P1;durP2;ratioP2;P2;SDS_P1;SDS_P2;PMS_P1;PMS_P2;Temp;Humidity;BMP_temperature;BMP_pressure;BME280_temperature;BME280_humidity;BME280_pressure;Samples;Min_cycle;Max_cycle;Signal;HPM_P1;HPM_P2
2022/04/29 00:01:25;;;;;;;5.38;4.20;;;5.80;99.90;;;;;;5009418;28;20462;-33
2022/04/29 00:03:53;;;;;;;7.47;3.92;;;5.60;99.90;;;;;;5015151;28;20562;-32
2022/04/29 00:06:19;;;;;;;5.88;4.47;;;5.50;99.90;;;;;;5013265;28;20036;-33
2022/04/29 00:08:45;;;;;;;4.72;3.95;;;5.50;99.90;;;;;;5012456;28;20107;-32
2022/04/29 00:11:11;;;;;;;7.38;4.63;;;5.40;99.90;;;;;;5011243;28;20025;-32
2022/04/29 00:13:37;;;;;;;5.63;4.90;;;5.40;99.90;;;;;;5011554;28;20052;-32
2022/04/29 00:16:05;;;;;;;6.13;4.63;;;5.40;99.90;;;;;;5009509;28;20030;-33
2022/04/29 00:18:31;;;;;;;5.18;4.68;;;5.50;99.90;;;;;;5018858;28;20041;-33
2022/04/29 00:20:56;;;;;;;6.72;5.13;;;5.50;99.90;;;;;;5020415;28;20120;-32
2022/04/29 00:23:22;;;;;;;5.90;4.47;;;5.20;99.90;;;;;;5015331;28;22068;-33
2022/04/29 00:25:48;;;;;;;5.32;4.70;;;5.30;99.90;;;;;;5018747;28;20030;-32
2022/04/29 00:28:14;;;;;;;5.57;3.90;;;5.40;99.90;;;;;;5031383;28;20032;-33
2022/04/29 00:30:40;;;;;;;5.45;4.43;;;5.40;99.90;;;;;;5017821;28;20038;-32
2022/04/29 00:33:05;;;;;;;5.35;4.53;;;5.30;99.90;;;;;;5017446;28;20065;-32
2022/04/29 00:35:31;;;;;;;5.43;3.95;;;5.30;99.90;;;;;;5013257;28;20485;-32
2022/04/29 00:37:57;;;;;;;7.82;5.07;;;5.20;99.90;;;;;;5014534;28;20041;-34
2022/04/29 00:40:28;;;;;;;6.35;4.50;;;5.20;99.90;;;;;;5021228;28;20072;-32
2022/04/29 00:42:54;;;;;;;7.10;4.60;;;4.90;99.90;;;;;;5017247;28;20049;-33
2022/04/29 00:45:22;;;;;;;5.57;5.03;;;5.00;99.90;;;;;;5019865;28;20698;-32
2022/04/29 00:47:49;;;;;;;7.10;5.20;;;5.00;99.90;;;;;;5020966;28;20056;-33
2022/04/29 00:50:16;;;;;;;5.45;4.30;;;5.00;99.90;;;;;;5015124;28;20022;-32
2022/04/29 00:52:45;;;;;;;3.90;3.50;;;4.90;99.90;;;;;;5015947;28;20032;-32
2022/04/29 00:55:12;;;;;;;5.93;4.30;;;4.70;99.90;;;;;;5014791;28;20103;-32
2022/04/29 00:57:44;;;;;;;4.97;4.43;;;4.40;99.90;;;;;;5014689;28;20421;-33
2022/04/29 01:00:14;;;;;;;4.72;3.83;;;4.40;99.90;;;;;;5022097;28;20112;-35
2022/04/29 01:02:42;;;;;;;4.85;4.03;;;4.20;99.90;;;;;;5022734;28;20038;-39
2022/04/29 01:05:10;;;;;;;7.25;4.55;;;4.30;99.90;;;;;;5026622;28;20052;-40
2022/04/29 01:07:37;;;;;;;6.00;4.57;;;4.50;99.90;;;;;;5028410;28;20456;-38
2022/04/29 01:10:05;;;;;;;6.40;4.28;;;4.40;99.90;;;;;;5026427;28;20060;-36
2022/04/29 01:12:34;;;;;;;5.70;4.60;;;4.40;99.90;;;;;;5020575;28;20028;-39
2022/04/29 01:15:08;;;;;;;8.68;4.82;;;4.30;99.90;;;;;;5027412;28;20030;-36
2022/04/29 01:17:35;;;;;;;6.90;4.75;;;4.10;99.90;;;;;;5027196;28;20139;-39
2022/04/29 01:20:03;;;;;;;5.50;4.28;;;4.10;99.90;;;;;;5028949;28;20054;-39
2022/04/29 01:22:29;;;;;;;5.90;5.30;;;4.00;99.90;;;;;;5022691;28;20041;-38
2022/04/29 01:24:54;;;;;;;6.78;4.88;;;4.10;99.90;;;;;;5035556;28;20288;-39
2022/04/29 01:27:20;;;;;;;4.00;3.60;;;4.10;99.90;;;;;;5024989;28;20044;-38
2022/04/29 01:30:00;;;;;;;7.20;4.70;;;4.10;99.90;;;;;;5026086;28;20627;-39
2022/04/29 01:32:29;;;;;;;5.03;4.00;;;3.90;99.90;;;;;;5019054;28;20030;-37
2022/04/29 01:34:54;;;;;;;4.75;4.07;;;3.90;99.90;;;;;;5025052;28;21080;-38
2022/04/29 01:37:20;;;;;;;5.82;4.47;;;4.00;99.90;;;;;;5024792;28;20040;-39
2022/04/29 01:39:45;;;;;;;5.68;4.72;;;4.10;99.90;;;;;;5023733;28;20073;-40
2022/04/29 01:42:11;;;;;;;6.88;4.60;;;3.90;99.90;;;;;;5021580;28;20120;-39
2022/04/29 01:44:37;;;;;;;5.82;3.80;;;3.80;99.90;;;;;;5024914;28;20423;-38
2022/04/29 01:47:02;;;;;;;7.10;4.63;;;3.80;99.90;;;;;;5021784;28;20608;-39
2022/04/29 01:49:28;;;;;;;7.63;4.25;;;3.80;99.90;;;;;;5027360;28;20032;-39
2022/04/29 01:51:56;;;;;;;7.15;4.82;;;3.90;99.90;;;;;;5026671;28;20037;-38
2022/04/29 01:54:21;;;;;;;6.82;4.32;;;3.90;99.90;;;;;;5024390;28;20447;-38
2022/04/29 01:56:47;;;;;;;5.18;4.57;;;3.90;99.90;;;;;;5022558;28;20028;-38
2022/04/29 01:59:14;;;;;;;5.53;4.75;;;4.10;99.90;;;;;;5021059;28;20100;-39
2022/04/29 02:01:39;;;;;;;5.35;4.78;;;4.00;99.90;;;;;;5022521;28;20112;-39
2022/04/29 02:04:05;;;;;;;6.93;5.22;;;4.00;99.90;;;;;;5022904;28;20466;-36
2022/04/29 02:06:31;;;;;;;5.32;4.05;;;4.00;99.90;;;;;;5022529;28;20033;-38
2022/04/29 02:08:57;;;;;;;8.45;4.55;;;4.00;99.90;;;;;;5054105;28;20041;-39
2022/04/29 02:11:22;;;;;;;5.72;4.88;;;3.90;99.90;;;;;;5028673;28;20477;-39
2022/04/29 02:13:49;;;;;;;5.75;4.68;;;3.80;99.90;;;;;;5019083;28;20021;-38
2022/04/29 02:16:15;;;;;;;5.80;4.90;;;3.70;99.90;;;;;;5024955;28;20383;-36
2022/04/29 02:18:41;;;;;;;7.78;4.90;;;3.70;99.90;;;;;;5026613;28;20077;-37
2022/04/29 02:21:07;;;;;;;6.35;4.43;;;3.80;99.90;;;;;;5023355;28;20053;-36
2022/04/29 02:23:33;;;;;;;7.15;4.47;;;3.80;99.90;;;;;;5022628;28;20398;-37
2022/04/29 02:25:59;;;;;;;6.20;4.20;;;3.70;99.90;;;;;;5024967;28;20060;-36
2022/04/29 02:28:27;;;;;;;4.93;4.25;;;3.60;99.90;;;;;;5027629;28;20486;-39
2022/04/29 02:30:55;;;;;;;6.00;4.60;;;3.60;99.90;;;;;;5036354;28;20033;-39
2022/04/29 02:33:21;;;;;;;4.95;4.43;;;3.70;99.90;;;;;;5024760;28;20029;-39
2022/04/29 02:35:47;;;;;;;5.78;4.13;;;3.50;99.90;;;;;;5030750;28;20037;-39
2022/04/29 02:38:13;;;;;;;4.43;3.17;;;3.20;99.90;;;;;;5034465;28;20148;-39
2022/04/29 02:40:39;;;;;;;3.63;3.28;;;3.10;99.90;;;;;;5019915;28;20037;-38
2022/04/29 02:43:05;;;;;;;4.13;3.70;;;3.10;99.90;;;;;;5025595;28;20073;-37
2022/04/29 02:45:30;;;;;;;4.75;3.92;;;3.20;99.90;;;;;;5023980;28;20108;-40
2022/04/29 02:47:56;;;;;;;5.00;4.45;;;3.20;99.90;;;;;;5022084;28;20064;-37
2022/04/29 02:50:22;;;;;;;3.50;3.20;;;3.20;99.90;;;;;;5021258;28;20040;-39
2022/04/29 02:52:47;;;;;;;4.05;3.15;;;3.10;99.90;;;;;;5020547;28;22153;-36
2022/04/29 02:55:13;;;;;;;6.00;3.47;;;3.20;99.90;;;;;;5026343;28;20033;-39
2022/04/29 02:57:38;;;;;;;3.28;2.55;;;3.20;99.90;;;;;;5019928;28;20041;-37
2022/04/29 03:00:05;;;;;;;2.63;2.42;;;3.00;99.90;;;;;;5023806;28;20031;-39
2022/04/29 03:02:30;;;;;;;4.35;3.40;;;3.00;99.90;;;;;;5020177;28;20435;-39
2022/04/29 03:04:56;;;;;;;7.97;3.88;;;3.10;99.90;;;;;;5023878;28;20025;-38
2022/04/29 03:07:22;;;;;;;6.72;4.82;;;2.90;99.90;;;;;;5021825;28;20095;-38
2022/04/29 03:09:48;;;;;;;5.45;4.15;;;2.90;99.90;;;;;;5026894;28;20033;-39
2022/04/29 03:12:14;;;;;;;6.55;4.68;;;2.90;99.90;;;;;;5025111;28;20594;-36
2022/04/29 03:14:40;;;;;;;6.93;4.55;;;2.90;99.90;;;;;;5022251;28;20033;-39
2022/04/29 03:18:17;;;;;;;5.45;4.22;;;2.90;99.90;;;;;;5021875;28;20033;-39
2022/04/29 03:19:52;;;;;;;4.32;3.78;;;2.80;99.90;;;;;;5026322;28;20157;-39
2022/04/29 03:22:18;;;;;;;8.02;5.07;;;2.80;99.90;;;;;;5028844;28;20647;-37
2022/04/29 03:24:44;;;;;;;5.30;4.10;;;2.70;99.90;;;;;;5020466;28;20029;-36
2022/04/29 03:27:09;;;;;;;4.90;4.40;;;2.80;99.90;;;;;;5023044;28;20079;-39
2022/04/29 03:29:35;;;;;;;9.38;5.30;;;2.90;99.90;;;;;;5021718;28;21228;-37
2022/04/29 03:32:02;;;;;;;8.65;4.85;;;2.90;99.90;;;;;;5021024;28;20033;-39
2022/04/29 03:34:28;;;;;;;10.07;5.65;;;2.90;99.90;;;;;;5019061;28;20025;-36
2022/04/29 03:36:53;;;;;;;8.07;4.85;;;2.80;99.90;;;;;;5026593;28;20887;-36
2022/04/29 03:39:19;;;;;;;8.68;5.18;;;2.80;99.90;;;;;;5028395;28;20021;-39
2022/04/29 03:41:45;;;;;;;5.68;4.55;;;2.80;99.90;;;;;;5025373;28;20029;-39
2022/04/29 03:44:11;;;;;;;7.05;4.78;;;2.90;99.90;;;;;;5049420;28;20073;-36
2022/04/29 03:46:36;;;;;;;6.55;4.70;;;2.90;99.90;;;;;;5029502;28;20116;-38
2022/04/29 03:51:46;;;;;;;6.85;4.57;;;2.80;99.90;;;;;;5019224;28;20031;-36
2022/04/29 03:54:12;;;;;;;6.97;4.90;;;2.80;99.90;;;;;;5024152;28;20041;-37
2022/04/29 03:56:38;;;;;;;6.38;4.53;;;2.70;99.90;;;;;;5021086;28;20024;-36
2022/04/29 03:59:03;;;;;;;5.30;4.43;;;2.50;99.90;;;;;;5019748;28;20508;-36
2022/04/29 04:01:30;;;;;;;6.53;5.07;;;2.60;99.90;;;;;;5023003;28;20142;-37
2022/04/29 04:03:55;;;;;;;6.22;4.95;;;2.60;99.90;;;;;;5018867;28;20037;-39
2022/04/29 04:09:05;;;;;;;6.05;5.20;;;2.40;99.90;;;;;;5024537;28;20029;-37
2022/04/29 04:11:31;;;;;;;7.07;5.63;;;2.60;99.90;;;;;;5025939;28;20033;-38
2022/04/29 04:13:57;;;;;;;7.97;5.45;;;2.60;99.90;;;;;;5023820;28;20474;-39
2022/04/29 04:16:24;;;;;;;7.43;5.25;;;2.70;99.90;;;;;;5021722;28;20079;-39
2022/04/29 04:18:50;;;;;;;4.00;3.60;;;2.60;99.90;;;;;;5025922;28;20378;-39
2022/04/29 04:21:16;;;;;;;3.65;3.35;;;2.40;99.90;;;;;;5018560;28;20102;-39
2022/04/29 04:23:42;;;;;;;4.18;3.28;;;2.40;99.90;;;;;;5022213;28;20076;-37
2022/04/29 04:26:08;;;;;;;4.55;4.15;;;2.40;99.90;;;;;;5019853;28;20417;-33
2022/04/29 04:28:33;;;;;;;3.97;3.60;;;2.50;99.90;;;;;;5023158;28;20083;-37
2022/04/29 04:30:59;;;;;;;4.25;3.80;;;2.40;99.90;;;;;;5020051;28;20402;-37
2022/04/29 04:33:24;;;;;;;5.15;4.20;;;2.40;99.90;;;;;;5021048;28;20033;-38
2022/04/29 04:35:50;;;;;;;4.82;3.88;;;2.50;99.90;;;;;;5021897;28;20468;-36
2022/04/29 04:38:16;;;;;;;6.20;3.70;;;2.60;99.90;;;;;;5024065;28;20043;-38
2022/04/29 04:40:42;;;;;;;4.43;3.72;;;2.70;99.90;;;;;;5020179;28;20037;-39
2022/04/29 04:43:08;;;;;;;4.72;4.10;;;2.80;99.90;;;;;;5022997;28;20107;-36
2022/04/29 04:45:34;;;;;;;4.72;4.28;;;2.90;99.90;;;;;;5019398;28;20047;-38
2022/04/29 04:47:59;;;;;;;4.05;3.65;;;2.90;99.90;;;;;;5025907;28;20025;-35
2022/04/29 04:50:25;;;;;;;5.63;4.80;;;2.80;99.90;;;;;;5021680;28;20717;-38
2022/04/29 04:52:51;;;;;;;6.32;4.65;;;2.90;99.90;;;;;;5018391;28;20129;-38
2022/04/29 04:55:16;;;;;;;10.52;5.35;;;2.90;99.90;;;;;;5024170;28;20037;-38
2022/04/29 04:57:42;;;;;;;4.28;3.88;;;2.90;99.90;;;;;;5024939;28;20029;-37
2022/04/29 05:00:09;;;;;;;4.75;3.75;;;2.90;99.90;;;;;;5019196;28;20026;-38
2022/04/29 05:02:38;;;;;;;4.20;3.55;;;2.90;99.90;;;;;;5018233;28;20175;-36
2022/04/29 05:05:03;;;;;;;4.55;3.92;;;3.00;99.90;;;;;;5027882;28;20032;-38
2022/04/29 05:07:29;;;;;;;3.70;3.40;;;3.00;99.90;;;;;;5024396;28;20622;-37
2022/04/29 05:09:55;;;;;;;4.32;3.72;;;3.00;99.90;;;;;;5024541;28;20025;-38
2022/04/29 05:12:21;;;;;;;4.50;4.10;;;2.90;99.90;;;;;;5032143;28;20032;-37
2022/04/29 05:14:46;;;;;;;4.45;4.05;;;3.00;99.90;;;;;;5026038;28;20056;-34
2022/04/29 05:17:12;;;;;;;4.70;4.30;;;3.10;99.90;;;;;;5021333;28;20088;-38
2022/04/29 05:19:38;;;;;;;7.32;5.43;;;3.30;99.90;;;;;;5016735;28;20054;-38
2022/04/29 05:22:04;;;;;;;9.25;5.85;;;3.50;99.90;;;;;;5015497;28;20047;-36
2022/04/29 05:24:30;;;;;;;6.82;5.32;;;3.50;99.90;;;;;;5020708;28;20042;-36
2022/04/29 05:26:56;;;;;;;5.70;4.55;;;3.50;99.90;;;;;;5035820;28;20049;-38
2022/04/29 05:29:21;;;;;;;7.45;5.38;;;3.40;99.90;;;;;;5023844;28;20026;-38
2022/04/29 05:31:47;;;;;;;6.68;5.13;;;3.40;99.90;;;;;;5019009;28;20040;-38
2022/04/29 05:34:13;;;;;;;10.45;5.15;;;3.30;99.90;;;;;;5023525;28;20033;-35
2022/04/29 05:36:39;;;;;;;5.97;4.93;;;3.40;99.90;;;;;;5018893;28;20381;-37
2022/04/29 05:44:34;;;;;;;7.85;6.45;;;4.00;99.90;;;;;;5026504;28;20076;-38
2022/04/29 05:47:00;;;;;;;8.30;6.40;;;4.20;99.90;;;;;;5023088;28;20375;-38
2022/04/29 05:49:26;;;;;;;8.93;6.47;;;4.30;99.90;;;;;;5026622;28;20032;-37
2022/04/29 05:51:51;;;;;;;10.65;7.07;;;4.40;99.90;;;;;;5025334;28;21092;-39
2022/04/29 05:54:17;;;;;;;11.73;7.75;;;4.70;99.90;;;;;;5027353;28;20029;-38
2022/04/29 05:56:42;;;;;;;11.23;8.52;;;4.90;99.90;;;;;;5018575;28;20497;-36
2022/04/29 05:59:08;;;;;;;14.32;8.30;;;5.10;99.90;;;;;;5023894;28;20125;-38
2022/04/29 06:01:34;;;;;;;12.15;8.10;;;5.20;99.90;;;;;;5021626;28;20037;-39
2022/04/29 06:03:59;;;;;;;13.60;8.43;;;5.40;99.90;;;;;;5027650;28;20545;-38
2022/04/29 06:06:25;;;;;;;10.55;8.15;;;5.50;99.90;;;;;;5021059;28;20033;-38
2022/04/29 06:08:50;;;;;;;13.00;8.13;;;5.60;99.90;;;;;;5023408;28;21544;-39
2022/04/29 06:11:16;;;;;;;12.48;7.40;;;5.70;99.90;;;;;;5022451;28;20410;-36
2022/04/29 06:13:42;;;;;;;13.40;9.05;;;5.90;99.90;;;;;;5025031;28;20115;-37
2022/04/29 06:16:10;;;;;;;10.60;7.78;;;6.20;99.90;;;;;;5019361;28;20036;-38
2022/04/29 06:18:36;;;;;;;13.30;8.70;;;6.40;99.90;;;;;;5022079;28;20076;-38
2022/04/29 06:21:01;;;;;;;14.52;8.88;;;6.70;99.90;;;;;;5019917;28;20112;-35
2022/04/29 06:23:28;;;;;;;14.77;9.57;;;6.90;99.90;;;;;;5022281;28;20135;-38
2022/04/29 06:25:53;;;;;;;16.60;9.98;;;7.20;99.90;;;;;;5023371;28;20033;-38
2022/04/29 06:28:19;;;;;;;14.27;10.00;;;7.40;99.90;;;;;;5025411;28;20107;-37
2022/04/29 06:30:44;;;;;;;16.85;10.18;;;7.50;99.90;;;;;;5018999;28;20022;-37
2022/04/29 06:33:10;;;;;;;13.43;9.93;;;7.70;99.90;;;;;;5022238;28;20029;-35
2022/04/29 06:35:41;;;;;;;16.23;11.45;;;7.90;99.90;;;;;;5019747;28;20096;-38
2022/04/29 06:38:07;;;;;;;13.60;10.15;;;8.20;99.90;;;;;;5027149;28;20092;-38
2022/04/29 06:40:32;;;;;;;14.32;10.90;;;8.40;99.90;;;;;;5022579;28;20995;-36
2022/04/29 06:42:58;;;;;;;15.73;10.57;;;8.50;99.90;;;;;;5021908;28;20037;-38
2022/04/29 06:45:24;;;;;;;13.70;9.43;;;8.80;99.90;;;;;;5023001;28;20045;-38
2022/04/29 06:47:49;;;;;;;17.60;10.98;;;9.10;99.90;;;;;;5021291;28;20029;-38
2022/04/29 06:50:15;;;;;;;16.42;11.15;;;9.30;99.90;;;;;;5024537;28;20387;-38
2022/04/29 06:52:40;;;;;;;17.35;11.23;;;9.60;99.90;;;;;;5022762;28;20092;-36
2022/04/29 06:55:08;;;;;;;17.77;11.18;;;9.90;99.90;;;;;;5020804;28;20408;-37
2022/04/29 06:57:34;;;;;;;18.27;11.48;;;10.00;99.90;;;;;;5019032;28;20549;-39
2022/04/29 07:00:00;;;;;;;15.32;11.05;;;10.20;99.90;;;;;;5022662;28;20108;-38
2022/04/29 07:02:26;;;;;;;13.95;8.40;;;10.40;99.90;;;;;;5025878;28;20156;-38
2022/04/29 07:04:54;;;;;;;12.85;8.88;;;10.60;99.90;;;;;;5022494;28;20080;-39
2022/04/29 07:07:20;;;;;;;12.40;8.88;;;10.80;99.90;;;;;;5026407;28;20025;-38
2022/04/29 07:09:46;;;;;;;14.15;8.88;;;10.90;99.90;;;;;;5022386;28;20037;-35
2022/04/29 07:12:11;;;;;;;13.25;9.02;;;11.00;99.90;;;;;;5025516;28;20018;-35
2022/04/29 07:14:37;;;;;;;13.50;9.57;;;11.20;99.90;;;;;;5043605;28;20029;-38
2022/04/29 07:17:03;;;;;;;17.88;9.38;;;11.30;99.90;;;;;;5026465;28;20021;-38
2022/04/29 07:19:29;;;;;;;14.60;10.05;;;11.40;98.40;;;;;;5027162;28;20025;-39
2022/04/29 07:21:54;;;;;;;13.32;8.65;;;11.50;96.70;;;;;;5026027;28;20029;-39
2022/04/29 07:24:20;;;;;;;11.60;8.40;;;11.60;98.10;;;;;;5019729;28;20029;-38
2022/04/29 07:26:46;;;;;;;10.80;8.85;;;11.70;97.00;;;;;;5025523;28;20025;-38
2022/04/29 07:29:12;;;;;;;13.10;8.88;;;12.00;99.10;;;;;;5026409;28;20029;-38
2022/04/29 07:31:38;;;;;;;10.55;8.43;;;12.20;95.30;;;;;;5023474;28;20033;-37
2022/04/29 07:34:04;;;;;;;11.30;8.32;;;12.30;98.20;;;;;;5024272;28;20051;-38
2022/04/29 07:41:57;;;;;;;9.18;7.10;;;12.70;87.20;;;;;;5025090;28;20036;-38
2022/04/29 07:44:23;;;;;;;9.60;8.05;;;12.90;90.20;;;;;;5021871;28;20045;-39
2022/04/29 07:46:49;;;;;;;8.82;7.32;;;13.00;84.30;;;;;;5025979;28;20108;-36
2022/04/29 07:49:16;;;;;;;8.83;7.33;;;13.10;87.70;;;;;;5024276;28;20077;-37
2022/04/29 07:51:42;;;;;;;6.75;6.05;;;13.30;90.10;;;;;;5022194;28;20367;-38
2022/04/29 07:54:08;;;;;;;8.23;5.65;;;13.60;77.80;;;;;;5022023;28;20466;-35
2022/04/29 07:56:34;;;;;;;6.97;5.28;;;13.70;69.50;;;;;;5022984;28;20112;-36
2022/04/29 07:59:00;;;;;;;7.25;5.75;;;13.70;64.80;;;;;;5024730;28;20219;-37
2022/04/29 08:01:26;;;;;;;7.70;5.90;;;13.80;59.70;;;;;;5025534;28;20135;-37
2022/04/29 08:03:53;;;;;;;6.20;4.82;;;13.90;62.40;;;;;;5021831;28;20048;-39
2022/04/29 08:06:19;;;;;;;8.27;5.60;;;14.00;62.10;;;;;;5021372;28;20068;-36
2022/04/29 08:08:45;;;;;;;6.88;5.35;;;14.20;56.60;;;;;;5023215;28;20030;-38
2022/04/29 08:11:11;;;;;;;6.53;4.82;;;14.00;55.30;;;;;;5024493;28;20092;-38
2022/04/29 08:13:38;;;;;;;6.22;4.78;;;14.10;58.50;;;;;;5022873;28;20387;-37
2022/04/29 08:16:04;;;;;;;6.03;5.13;;;14.20;56.70;;;;;;5021987;28;20123;-38
2022/04/29 08:18:30;;;;;;;5.55;4.93;;;14.20;54.40;;;;;;5023349;28;20025;-36
2022/04/29 08:20:57;;;;;;;5.40;4.90;;;14.00;54.20;;;;;;5020877;28;20036;-35
2022/04/29 08:23:23;;;;;;;5.88;4.80;;;14.10;55.70;;;;;;5023217;28;20061;-35
2022/04/29 08:25:49;;;;;;;6.10;4.85;;;14.20;54.80;;;;;;5022695;28;20132;-38
2022/04/29 08:28:15;;;;;;;7.35;5.13;;;14.30;54.30;;;;;;5021289;28;20533;-38
2022/04/29 08:30:40;;;;;;;5.90;5.30;;;14.40;57.90;;;;;;5023890;28;20151;-35
2022/04/29 08:33:14;;;;;;;5.80;5.05;;;14.60;57.40;;;;;;5023396;28;20063;-38
2022/04/29 08:35:40;;;;;;;7.45;5.03;;;14.70;56.60;;;;;;5022643;28;20029;-37
2022/04/29 08:38:10;;;;;;;6.70;4.43;;;14.80;63.40;;;;;;5024871;28;20114;-36
2022/04/29 08:40:42;;;;;;;4.78;4.10;;;14.90;54.30;;;;;;5031456;28;20467;-38
2022/04/29 08:43:10;;;;;;;4.30;3.90;;;15.10;48.30;;;;;;5025926;28;20045;-36
2022/04/29 08:45:37;;;;;;;5.30;4.28;;;14.80;47.00;;;;;;5029601;28;20064;-36
2022/04/29 08:48:03;;;;;;;6.20;4.60;;;14.70;46.20;;;;;;5028901;28;20128;-37
2022/04/29 08:50:30;;;;;;;6.68;3.97;;;14.60;48.10;;;;;;5028579;28;20025;-37
2022/04/29 08:52:56;;;;;;;4.93;4.43;;;14.80;45.90;;;;;;5026443;28;20049;-38
2022/04/29 09:00:52;;;;;;;7.07;5.20;;;15.10;48.80;;;;;;5024163;28;20445;-35
2022/04/29 09:03:23;;;;;;;8.93;4.32;;;15.00;48.40;;;;;;5030124;28;20025;-38
2022/04/29 09:05:50;;;;;;;6.35;4.60;;;15.20;46.50;;;;;;5026256;28;20140;-38
2022/04/29 09:08:19;;;;;;;9.37;4.90;;;15.50;48.80;;;;;;5027288;28;20033;-38
2022/04/29 09:10:53;;;;;;;4.50;4.10;;;15.40;45.40;;;;;;5026088;28;20076;-35
2022/04/29 09:13:22;;;;;;;4.97;3.83;;;15.40;45.70;;;;;;5032689;28;20473;-38
2022/04/29 09:16:04;;;;;;;6.28;4.50;;;15.70;45.80;;;;;;5028462;28;20038;-36
2022/04/29 09:18:37;;;;;;;6.32;4.80;;;15.90;46.80;;;;;;5028328;28;20033;-38
2022/04/29 09:21:11;;;;;;;6.93;4.55;;;16.00;45.60;;;;;;5025847;28;20064;-37
2022/04/29 09:23:39;;;;;;;5.35;4.55;;;16.00;48.20;;;;;;5027695;28;20399;-34
2022/04/29 09:26:06;;;;;;;6.70;4.85;;;15.70;47.20;;;;;;5027312;28;20038;-37
2022/04/29 09:28:33;;;;;;;6.72;4.20;;;15.40;49.00;;;;;;5028040;28;20029;-36
2022/04/29 09:31:00;;;;;;;6.55;4.60;;;15.40;49.70;;;;;;5026190;28;20032;-37
2022/04/29 09:33:26;;;;;;;5.53;4.30;;;15.40;46.20;;;;;;5027195;28;20098;-34
2022/04/29 09:35:53;;;;;;;5.47;4.55;;;15.00;45.50;;;;;;5026369;28;20041;-38
2022/04/29 09:41:04;;;;;;;6.30;3.95;;;15.30;44.40;;;;;;5032806;28;20329;-38
2022/04/29 09:43:42;;;;;;;6.45;5.03;;;15.40;43.90;;;;;;5025313;28;21771;-38
2022/04/29 09:46:28;;;;;;;5.68;4.50;;;15.50;49.00;;;;;;5026252;28;20086;-36
2022/04/29 09:49:12;;;;;;;4.78;3.95;;;15.60;44.90;;;;;;5029368;28;20090;-38
2022/04/29 09:51:48;;;;;;;6.10;4.60;;;15.60;47.60;;;;;;5029602;28;20112;-37
2022/04/29 09:54:18;;;;;;;6.38;5.18;;;15.50;46.30;;;;;;5030161;28;20029;-35
2022/04/29 09:57:04;;;;;;;5.03;4.53;;;15.30;44.30;;;;;;5024679;28;20084;-38
2022/04/29 09:59:37;;;;;;;5.15;4.40;;;15.50;48.40;;;;;;5019724;28;20410;-35
2022/04/29 10:02:04;;;;;;;5.47;4.82;;;15.50;46.70;;;;;;5023119;28;20038;-37
2022/04/29 10:04:34;;;;;;;8.98;6.40;;;15.60;44.60;;;;;;5030624;28;20033;-36
2022/04/29 10:07:03;;;;;;;7.40;5.55;;;15.50;47.00;;;;;;5022675;28;20025;-37
2022/04/29 10:09:35;;;;;;;7.80;6.35;;;15.60;47.50;;;;;;5029677;28;20033;-38
2022/04/29 10:12:07;;;;;;;8.32;5.78;;;15.80;49.20;;;;;;5026565;28;20031;-36
2022/04/29 10:14:36;;;;;;;5.95;5.28;;;16.00;45.80;;;;;;5021218;28;20037;-37
2022/04/29 10:22:56;;;;;;;7.47;5.53;;;16.20;47.20;;;;;;5023217;28;20079;-38
2022/04/29 10:25:26;;;;;;;7.70;5.80;;;16.30;44.80;;;;;;5026915;28;20025;-34
2022/04/29 10:27:52;;;;;;;12.32;6.45;;;16.40;49.90;;;;;;5022989;28;20060;-38
2022/04/29 10:30:31;;;;;;;8.90;5.50;;;16.20;50.10;;;;;;5023846;28;20075;-38
2022/04/29 10:33:07;;;;;;;7.28;5.30;;;16.40;46.20;;;;;;5018463;28;20033;-38
2022/04/29 10:35:39;;;;;;;8.32;6.68;;;16.50;48.10;;;;;;5024166;28;20072;-38
2022/04/29 10:38:27;;;;;;;6.95;6.22;;;16.10;47.70;;;;;;5023508;28;20025;-38
2022/04/29 10:41:16;;;;;;;8.20;6.32;;;16.00;53.20;;;;;;5026590;28;20037;-36
2022/04/29 10:43:50;;;;;;;7.60;6.10;;;15.90;46.00;;;;;;5024361;28;20057;-38
2022/04/29 10:46:20;;;;;;;8.15;5.80;;;15.90;49.30;;;;;;5020724;28;20036;-38
2022/04/29 10:48:47;;;;;;;10.50;6.55;;;16.10;49.10;;;;;;5027429;28;20018;-38
2022/04/29 10:51:46;;;;;;;8.98;6.38;;;16.20;48.30;;;;;;5022225;28;20025;-38
2022/04/29 10:54:12;;;;;;;7.60;6.03;;;16.30;50.20;;;;;;5014881;28;20604;-38
2022/04/29 10:56:38;;;;;;;7.90;6.47;;;16.60;48.90;;;;;;5053431;28;20719;-36
2022/04/29 10:59:04;;;;;;;9.50;6.07;;;16.60;51.00;;;;;;5025256;28;20033;-38
2022/04/29 11:01:34;;;;;;;7.50;5.97;;;16.60;48.80;;;;;;5026155;28;20497;-38
2022/04/29 11:04:19;;;;;;;8.30;5.63;;;16.80;49.40;;;;;;5019369;28;20033;-37
2022/04/29 11:06:47;;;;;;;6.18;5.43;;;16.90;47.90;;;;;;5013251;28;20068;-38
2022/04/29 11:09:34;;;;;;;6.60;5.30;;;16.80;45.50;;;;;;5025547;28;20128;-36
2022/04/29 11:12:00;;;;;;;6.90;4.85;;;16.30;43.80;;;;;;5024615;28;20463;-38
2022/04/29 11:14:26;;;;;;;5.68;5.03;;;16.30;41.30;;;;;;5029898;28;20466;-37
2022/04/29 11:17:06;;;;;;;6.65;5.13;;;16.40;43.00;;;;;;5025730;28;20036;-37
2022/04/29 11:19:36;;;;;;;5.25;4.45;;;16.20;44.80;;;;;;5021746;28;20791;-37
2022/04/29 11:24:50;;;;;;;8.43;5.25;;;16.60;44.90;;;;;;5027142;28;20127;-34
2022/04/29 11:27:26;;;;;;;8.20;5.35;;;16.70;44.10;;;;;;5022567;28;20100;-36
2022/04/29 11:29:53;;;;;;;7.75;5.35;;;16.80;46.90;;;;;;5019789;28;20041;-35
2022/04/29 11:32:25;;;;;;;6.97;5.90;;;16.80;44.60;;;;;;5030794;28;20037;-37
2022/04/29 11:35:00;;;;;;;8.70;5.80;;;16.60;48.10;;;;;;5025876;28;20034;-38
2022/04/29 11:37:28;;;;;;;7.05;5.53;;;16.40;47.10;;;;;;5024472;28;20020;-37
2022/04/29 11:40:00;;;;;;;8.38;5.78;;;16.40;48.80;;;;;;5022792;28;20067;-38
2022/04/29 11:42:27;;;;;;;6.13;5.53;;;16.40;42.90;;;;;;5027824;28;20075;-37
2022/04/29 11:44:53;;;;;;;7.00;5.25;;;16.50;44.90;;;;;;5025137;28;20083;-35
2022/04/29 11:47:26;;;;;;;7.07;5.93;;;16.60;48.40;;;;;;5026621;28;20486;-37
2022/04/29 11:49:52;;;;;;;8.38;6.20;;;16.80;45.30;;;;;;5023757;28;20035;-37
2022/04/29 11:52:26;;;;;;;9.18;6.35;;;16.80;47.40;;;;;;5022937;28;20053;-36
2022/04/29 11:54:56;;;;;;;11.85;6.28;;;17.00;45.50;;;;;;5022462;28;20083;-38
2022/04/29 11:57:23;;;;;;;7.43;5.38;;;16.80;44.70;;;;;;5025007;28;20029;-34
2022/04/29 11:59:49;;;;;;;8.25;6.15;;;16.90;44.10;;;;;;5024134;28;20041;-38
2022/04/29 12:02:20;;;;;;;9.25;5.70;;;16.90;47.40;;;;;;5024002;28;20033;-35
2022/04/29 12:05:04;;;;;;;7.18;6.10;;;17.00;42.20;;;;;;5022578;28;20056;-38
2022/04/29 12:07:39;;;;;;;7.03;4.90;;;17.00;42.50;;;;;;5024935;28;20064;-35
2022/04/29 12:10:28;;;;;;;7.88;4.78;;;17.00;43.30;;;;;;5023143;28;20037;-35
2022/04/29 12:12:58;;;;;;;6.13;4.70;;;17.00;44.50;;;;;;5025873;28;20025;-38
2022/04/29 12:15:32;;;;;;;6.70;4.85;;;17.10;43.50;;;;;;5028585;28;20379;-38
2022/04/29 12:18:03;;;;;;;6.63;5.07;;;17.30;43.30;;;;;;5029044;28;20116;-35
2022/04/29 12:20:30;;;;;;;6.03;4.63;;;17.20;40.90;;;;;;5030976;28;20033;-37
2022/04/29 12:23:19;;;;;;;6.22;4.80;;;17.20;41.10;;;;;;5029338;28;20045;-35
2022/04/29 12:25:47;;;;;;;6.30;4.82;;;17.20;42.00;;;;;;5027178;28;20037;-36
2022/04/29 12:28:20;;;;;;;5.80;4.77;;;17.50;40.30;;;;;;5031851;28;20032;-38
2022/04/29 12:36:43;;;;;;;7.80;5.43;;;17.50;41.90;;;;;;5027948;28;20083;-36
2022/04/29 12:39:09;;;;;;;8.95;5.18;;;17.40;42.10;;;;;;5026826;28;20446;-35
2022/04/29 12:41:35;;;;;;;9.23;5.05;;;17.20;44.80;;;;;;5041231;28;20032;-38
2022/04/29 12:44:09;;;;;;;6.25;5.03;;;17.20;41.70;;;;;;5030910;28;20076;-36
2022/04/29 12:46:35;;;;;;;6.05;5.20;;;17.10;41.40;;;;;;5026418;28;20036;-36
2022/04/29 12:49:00;;;;;;;5.97;4.80;;;17.30;43.90;;;;;;5029063;28;20025;-38
2022/04/29 12:51:32;;;;;;;8.55;4.80;;;17.30;43.20;;;;;;5028236;28;20839;-37
2022/04/29 12:54:05;;;;;;;8.32;5.30;;;17.30;42.80;;;;;;5025515;28;20031;-38
2022/04/29 12:56:35;;;;;;;6.72;5.90;;;17.40;42.20;;;;;;5026733;28;20046;-38
2022/04/29 12:59:04;;;;;;;7.22;4.70;;;17.20;44.70;;;;;;5029467;28;20080;-38
2022/04/29 13:01:40;;;;;;;7.85;4.65;;;17.10;41.10;;;;;;5030372;28;20490;-38
2022/04/29 13:04:06;;;;;;;6.72;5.22;;;17.00;39.70;;;;;;5031189;28;21715;-35
2022/04/29 13:06:35;;;;;;;7.65;4.85;;;16.90;42.20;;;;;;5028127;28;20046;-37
2022/04/29 13:09:02;;;;;;;6.65;4.90;;;16.80;43.90;;;;;;5026501;28;20109;-36
2022/04/29 13:11:29;;;;;;;8.68;4.93;;;16.80;44.60;;;;;;5026993;28;20018;-38
2022/04/29 13:13:54;;;;;;;6.05;4.82;;;16.90;44.40;;;;;;5027317;28;20057;-37
2022/04/29 13:16:21;;;;;;;6.10;4.78;;;17.00;42.40;;;;;;5027148;28;20033;-37
2022/04/29 13:18:47;;;;;;;7.57;4.82;;;17.10;45.60;;;;;;5030119;28;20034;-38
2022/04/29 13:21:14;;;;;;;5.97;4.68;;;17.10;44.40;;;;;;5025399;28;20551;-36
2022/04/29 13:23:42;;;;;;;5.93;5.30;;;17.20;42.60;;;;;;5028094;28;20068;-38
2022/04/29 13:26:08;;;;;;;7.80;5.20;;;17.20;44.80;;;;;;5025328;28;20040;-35
2022/04/29 13:28:36;;;;;;;4.47;4.07;;;17.40;45.60;;;;;;5026367;28;20086;-36
2022/04/29 13:31:03;;;;;;;5.03;4.53;;;17.60;42.80;;;;;;5024336;28;20159;-37
2022/04/29 13:33:29;;;;;;;6.70;4.80;;;17.80;43.10;;;;;;5025271;28;20025;-38